Linton-on-ouse, United Kingdom
Current Conditions -  °F | °C
As of 6:50 AM on Saturday 20 Dec 2014 (Local Time) from EGXU Reporting Station
Scattered Clouds Scattered Clouds  
Wind Chill:   Ceiling: Unl
Heat Index:   Visibility: 6mi
Dew Point:   Wind: 21mph
Humidity: 93%   Direction: 280°W
Pressure: 30"   Gusts: 33mph
Location:  54.05°N, 1.25°W
Report Text: EGXU 200650Z AUTO 28018G29KT 9999 // FEW033/// SCT240/// 08/07 Q1016
Loading
Personal Weather Stations






























Interactive Weather Map New forecast layout! Learn more

10-Day Weather Forecast

Advertisements
Track Severe Weather on mobile